createdAt,value
2023-03-12T00:02:27.468Z,95237.41
2023-03-12T00:04:56.199Z,95237.03
2023-03-12T00:07:24.984Z,95232.53
2023-03-12T00:09:54.492Z,95227.13
2023-03-12T00:12:25.021Z,95229.18
2023-03-12T00:14:53.619Z,95224.52
2023-03-12T00:17:22.082Z,95220.92
2023-03-12T00:19:51.999Z,95214.38
2023-03-12T00:22:23.350Z,95206.02
2023-03-12T00:24:52.404Z,95197.17
2023-03-12T00:27:21.195Z,95205.74
2023-03-12T00:29:50.528Z,95198.98
2023-03-12T00:32:20.046Z,95195.35
2023-03-12T00:34:51.069Z,95194.36
2023-03-12T00:37:20.268Z,95188.42
2023-03-12T00:39:50.592Z,95184.99
2023-03-12T00:42:19.494Z,95185.05
2023-03-12T00:44:48.987Z,95178.25
2023-03-12T00:47:17.872Z,95174.78
2023-03-12T00:49:46.558Z,95163.71
2023-03-12T00:52:15.241Z,95160.09
2023-03-12T00:54:44.030Z,95161.70
2023-03-12T00:57:12.994Z,95154.00
2023-03-12T00:59:42.637Z,95149.95
2023-03-12T01:02:11.215Z,95146.57
2023-03-12T01:04:40.821Z,95150.38
2023-03-12T01:07:10.850Z,95145.54
2023-03-12T01:09:39.627Z,95147.47
2023-03-12T01:12:09.030Z,95144.50
2023-03-12T01:14:37.519Z,95146.55
2023-03-12T01:17:06.302Z,95143.89
2023-03-12T01:19:34.985Z,95141.98
2023-03-12T01:22:03.569Z,95143.73
2023-03-12T01:24:32.092Z,95139.77
2023-03-12T01:27:00.724Z,95146.42
2023-03-12T01:29:29.537Z,95143.55
2023-03-12T01:31:58.618Z,95140.42
2023-03-12T01:34:27.307Z,95137.64
2023-03-12T01:36:55.995Z,95134.77
2023-03-12T01:39:26.107Z,95133.98
2023-03-12T01:41:55.443Z,95132.88
2023-03-12T01:44:24.297Z,95133.89
2023-03-12T01:46:52.886Z,95138.52
2023-03-12T01:49:24.746Z,95134.39
2023-03-12T01:52:02.125Z,95137.77
2023-03-12T01:54:37.873Z,95131.45
2023-03-12T01:57:09.226Z,95134.33
2023-03-12T01:59:38.934Z,95135.48
2023-03-12T02:02:07.616Z,95129.96
2023-03-12T02:04:37.323Z,95132.36
2023-03-12T02:07:08.173Z,95127.14
2023-03-12T02:09:44.034Z,95123.88
2023-03-12T02:12:13.541Z,95119.77
2023-03-12T02:14:42.410Z,95120.67
2023-03-12T02:17:13.453Z,95120.75
2023-03-12T02:19:49.228Z,95124.34
2023-03-12T02:22:19.119Z,95123.05
2023-03-12T02:25:09.518Z,95127.74
2023-03-12T02:27:38.708Z,95124.66
2023-03-12T02:30:16.114Z,95127.65
2023-03-12T02:33:08.131Z,95123.33
2023-03-12T02:35:37.366Z,95126.25
2023-03-12T02:38:25.880Z,95126.15
2023-03-12T02:40:54.563Z,95121.61
2023-03-12T02:43:28.475Z,95128.15
2023-03-12T02:45:57.802Z,95132.69
2023-03-12T02:48:26.971Z,95132.96
2023-03-12T02:50:56.074Z,95135.58
2023-03-12T02:53:25.367Z,95136.13
2023-03-12T02:55:54.257Z,95134.70
2023-03-12T02:58:23.250Z,95136.16
2023-03-12T03:00:53.778Z,95143.14
2023-03-12T03:03:22.774Z,95142.66
2023-03-12T03:05:52.485Z,95143.20
2023-03-12T03:08:26.080Z,95139.84
2023-03-12T03:10:55.586Z,95142.04
2023-03-12T03:13:24.477Z,95147.90
2023-03-12T03:15:54.243Z,95147.20
2023-03-12T03:18:24.930Z,95148.35
2023-03-12T03:20:57.456Z,95148.27
2023-03-12T03:23:27.921Z,95151.98
2023-03-12T03:25:56.713Z,95160.30
2023-03-12T03:28:25.817Z,95164.20
2023-03-12T03:30:54.915Z,95159.32
2023-03-12T03:33:25.942Z,95167.16
2023-03-12T03:35:55.822Z,95162.20
2023-03-12T03:38:24.751Z,95164.53
2023-03-12T03:40:53.742Z,95167.11
2023-03-12T03:43:22.450Z,95166.88
2023-03-12T03:45:58.438Z,95173.12
2023-03-12T03:48:27.999Z,95176.23
2023-03-12T03:51:00.559Z,95177.48
2023-03-12T03:53:32.524Z,95178.35
2023-03-12T03:56:14.624Z,95184.66
2023-03-12T03:58:47.318Z,95181.87
2023-03-12T04:01:16.912Z,95192.75
2023-03-12T04:03:46.207Z,95199.98
2023-03-12T04:06:15.610Z,95202.50
2023-03-12T04:08:46.864Z,95212.83
2023-03-12T04:11:20.457Z,95236.63
2023-03-12T04:13:49.859Z,95267.52
2023-03-12T04:16:25.251Z,95273.65
2023-03-12T04:18:54.939Z,95279.92
2023-03-12T04:21:24.411Z,95292.55
2023-03-12T04:23:55.662Z,95300.58
2023-03-12T04:26:27.644Z,95301.86
2023-03-12T04:28:56.925Z,95309.46
2023-03-12T04:31:26.202Z,95319.83
2023-03-12T04:33:55.520Z,95313.67
2023-03-12T04:36:25.230Z,95327.38
2023-03-12T04:38:54.837Z,95332.64
2023-03-12T04:41:27.517Z,95345.49
2023-03-12T04:44:03.586Z,95353.27
2023-03-12T04:46:32.464Z,95370.48
2023-03-12T04:49:03.004Z,95381.34
2023-03-12T04:51:33.133Z,95389.69
2023-03-12T04:54:05.290Z,95399.67
2023-03-12T04:56:34.366Z,95385.91
2023-03-12T04:59:03.684Z,95386.91
2023-03-12T05:01:33.227Z,95402.52
2023-03-12T05:04:04.143Z,95399.29
2023-03-12T05:06:34.002Z,95385.99
2023-03-12T05:09:04.368Z,95421.89
2023-03-12T05:11:38.411Z,95454.77
2023-03-12T05:14:11.868Z,95466.91
2023-03-12T05:16:41.656Z,95473.09
2023-03-12T05:19:12.445Z,95490.30
2023-03-12T05:21:44.693Z,95507.02
2023-03-12T05:24:13.675Z,95514.45
2023-03-12T05:26:42.612Z,95533.50
2023-03-12T05:29:17.466Z,95551.39
2023-03-12T05:31:46.944Z,95560.11
2023-03-12T05:34:16.622Z,95584.87
2023-03-12T05:36:46.441Z,95593.49
2023-03-12T05:39:20.453Z,95604.88
2023-03-12T05:41:49.943Z,95615.23
2023-03-12T05:44:19.649Z,95630.69
2023-03-12T05:46:59.020Z,95646.45
2023-03-12T05:49:28.388Z,95649.91
2023-03-12T05:51:57.073Z,95662.58
2023-03-12T05:54:25.450Z,95679.33
2023-03-12T05:56:56.192Z,95697.64
2023-03-12T05:59:25.069Z,95711.06
2023-03-12T06:01:53.828Z,95726.14
2023-03-12T06:04:22.448Z,95740.70
2023-03-12T06:06:52.251Z,95757.13
2023-03-12T06:09:20.444Z,95773.48
2023-03-12T06:11:49.449Z,95790.11
2023-03-12T06:14:18.199Z,95789.25
2023-03-12T06:16:48.561Z,95798.08
2023-03-12T06:19:18.037Z,95805.05
2023-03-12T06:21:50.095Z,95806.05
2023-03-12T06:24:18.913Z,95810.83
2023-03-12T06:26:51.552Z,95806.31
2023-03-12T06:29:20.879Z,95804.63
2023-03-12T06:31:52.414Z,95809.54
2023-03-12T06:34:24.178Z,95810.41
2023-03-12T06:36:52.853Z,95816.19
2023-03-12T06:39:21.673Z,95825.31
2023-03-12T06:41:50.332Z,95827.35
2023-03-12T06:44:19.934Z,95842.52
2023-03-12T06:46:48.704Z,95855.80
2023-03-12T06:49:18.191Z,95864.89
2023-03-12T06:51:46.775Z,95872.83
2023-03-12T06:54:15.391Z,95884.40
2023-03-12T06:56:44.385Z,95897.34
2023-03-12T06:59:13.174Z,95914.51
2023-03-12T07:01:44.522Z,95911.25
2023-03-12T07:04:13.034Z,95934.73
2023-03-12T07:06:41.589Z,95947.65
2023-03-12T07:09:12.429Z,95950.71
2023-03-12T07:11:41.419Z,95966.55
2023-03-12T07:14:10.927Z,95986.36
2023-03-12T07:16:44.749Z,96013.73
2023-03-12T07:19:14.051Z,96015.89
2023-03-12T07:21:42.488Z,96036.02
2023-03-12T07:24:13.361Z,96048.08
2023-03-12T07:26:43.856Z,96054.05
2023-03-12T07:29:12.467Z,96072.63
2023-03-12T07:31:42.392Z,96088.16
2023-03-12T07:34:11.572Z,96099.38
2023-03-12T07:36:43.250Z,96106.42
2023-03-12T07:39:12.322Z,96130.45
2023-03-12T07:41:40.594Z,96143.13
2023-03-12T07:44:11.629Z,96166.80
2023-03-12T07:46:40.687Z,96185.45
2023-03-12T07:49:09.310Z,96212.98
2023-03-12T07:51:39.237Z,96229.98
2023-03-12T07:54:08.234Z,96242.73
2023-03-12T07:56:39.497Z,96257.88
2023-03-12T07:59:08.568Z,96273.42
2023-03-12T08:01:39.327Z,96293.16
2023-03-12T08:04:08.129Z,96307.17
2023-03-12T08:06:39.081Z,96316.98
2023-03-12T08:09:07.814Z,96342.53
2023-03-12T08:11:37.413Z,96354.52
2023-03-12T08:14:09.798Z,96360.11
2023-03-12T08:16:38.594Z,96363.68
2023-03-12T08:19:07.983Z,96372.19
2023-03-12T08:21:37.379Z,96402.02
2023-03-12T08:24:06.059Z,96404.19
2023-03-12T08:26:34.744Z,96425.02
2023-03-12T08:29:04.146Z,96452.67
2023-03-12T08:31:32.905Z,96478.80
2023-03-12T08:34:01.743Z,96514.52
2023-03-12T08:36:30.618Z,96529.73
2023-03-12T08:39:06.263Z,96553.52
2023-03-12T08:41:34.439Z,96576.73
2023-03-12T08:44:02.509Z,96604.62
2023-03-12T08:46:31.393Z,96624.25
2023-03-12T08:48:59.981Z,96642.67
2023-03-12T08:51:28.774Z,96659.17
2023-03-12T08:53:57.151Z,96681.80
2023-03-12T08:56:27.267Z,96698.01
2023-03-12T08:58:55.954Z,96714.63
2023-03-12T09:01:25.198Z,96744.41
2023-03-12T09:03:55.576Z,96767.34
2023-03-12T09:06:24.282Z,96780.48
2023-03-12T09:08:58.171Z,96796.04
2023-03-12T09:11:26.980Z,96812.15
2023-03-12T09:14:26.586Z,96838.77
2023-03-12T09:16:44.243Z,96853.65
2023-03-12T09:19:13.409Z,96864.50
2023-03-12T09:21:44.022Z,96867.86
2023-03-12T09:24:13.121Z,96879.25
2023-03-12T09:26:42.678Z,96881.25
2023-03-12T09:29:13.151Z,96881.77
2023-03-12T09:31:41.933Z,96897.64
2023-03-12T09:34:13.898Z,96908.46
2023-03-12T09:36:43.093Z,96924.92
2023-03-12T09:39:11.779Z,96944.18
2023-03-12T09:41:41.904Z,96943.98
2023-03-12T09:44:17.140Z,96951.89
2023-03-12T09:46:51.268Z,96966.36
2023-03-12T09:49:30.276Z,96974.65
2023-03-12T09:52:03.464Z,96986.64
2023-03-12T09:54:42.864Z,96983.34
2023-03-12T09:57:12.930Z,96998.40
2023-03-12T09:59:43.861Z,97007.86
2023-03-12T10:02:19.098Z,97011.19
2023-03-12T10:05:09.064Z,97013.10
2023-03-12T10:07:39.994Z,97009.50
2023-03-12T10:10:21.820Z,97007.94
2023-03-12T10:13:10.684Z,97007.09
2023-03-12T10:16:00.022Z,97010.48
2023-03-12T10:18:39.130Z,97005.68
2023-03-12T10:21:08.269Z,97017.80
2023-03-12T10:23:46.117Z,97013.48
2023-03-12T10:26:25.748Z,97018.98
2023-03-12T10:29:14.784Z,97012.27
2023-03-12T10:31:49.705Z,97015.12
2023-03-12T10:34:23.718Z,97022.30
2023-03-12T10:36:53.730Z,97024.36
2023-03-12T10:39:23.032Z,97037.58
2023-03-12T10:41:53.463Z,97045.52
2023-03-12T10:44:22.864Z,97069.52
2023-03-12T10:46:54.308Z,97057.59
2023-03-12T10:49:25.766Z,97054.73
2023-03-12T10:52:13.183Z,97059.17
2023-03-12T10:54:45.864Z,97072.68
2023-03-12T10:57:15.791Z,97076.52
2023-03-12T10:59:45.407Z,97079.73
2023-03-12T11:02:29.139Z,97098.60
2023-03-12T11:04:58.320Z,97113.48
2023-03-12T11:07:34.071Z,97118.99
2023-03-12T11:10:06.754Z,97133.85
2023-03-12T11:12:40.565Z,97141.52
2023-03-12T11:15:20.933Z,97160.23
2023-03-12T11:17:49.802Z,97185.27
2023-03-12T11:20:21.511Z,97198.59
2023-03-12T11:22:51.655Z,97205.23
2023-03-12T11:25:22.525Z,97223.70
2023-03-12T11:27:53.161Z,97242.09
2023-03-12T11:30:40.366Z,97263.14
2023-03-12T11:33:09.872Z,97278.37
2023-03-12T11:35:42.117Z,97307.48
2023-03-12T11:38:31.409Z,97323.36
2023-03-12T11:41:18.836Z,97336.73
2023-03-12T11:44:02.717Z,97347.30
2023-03-12T11:46:53.661Z,97345.98
2023-03-12T11:49:29.126Z,97352.36
2023-03-12T11:52:07.033Z,97365.42
2023-03-12T11:54:56.408Z,97361.98
2023-03-12T11:57:40.648Z,97354.67
2023-03-12T12:00:14.967Z,97361.98
2023-03-12T12:02:44.274Z,97362.67
2023-03-12T12:05:21.658Z,97381.69
2023-03-12T12:07:53.109Z,97393.44
2023-03-12T12:10:27.788Z,97399.79
2023-03-12T12:13:03.380Z,97404.97
2023-03-12T12:15:52.184Z,97420.67
2023-03-12T12:18:29.527Z,97451.29
2023-03-12T12:21:03.435Z,97469.80
2023-03-12T12:23:52.601Z,97495.64
2023-03-12T12:26:40.546Z,97510.80
2023-03-12T12:29:22.348Z,97512.66
2023-03-12T12:31:58.355Z,97510.83
2023-03-12T12:34:32.452Z,97509.07
2023-03-12T12:37:04.256Z,97513.86
2023-03-12T12:39:35.724Z,97519.47
2023-03-12T12:42:06.437Z,97545.41
2023-03-12T12:44:38.815Z,97561.05
2023-03-12T12:47:07.601Z,97577.25
2023-03-12T12:49:41.434Z,97592.70
2023-03-12T12:52:12.139Z,97610.72
2023-03-12T12:54:44.099Z,97623.60
2023-03-12T12:57:15.039Z,97651.38
2023-03-12T12:59:52.386Z,97669.90
2023-03-12T13:02:26.587Z,97683.58
2023-03-12T13:04:56.664Z,97680.71
2023-03-12T13:07:28.094Z,97685.33
2023-03-12T13:10:00.103Z,97688.61
2023-03-12T13:12:30.909Z,97701.86
2023-03-12T13:15:00.217Z,97721.85
2023-03-12T13:17:30.022Z,97735.02
2023-03-12T13:20:01.717Z,97757.88
2023-03-12T13:22:37.942Z,97774.14
2023-03-12T13:25:21.582Z,97785.15
2023-03-12T13:28:00.307Z,97792.39
2023-03-12T13:30:35.656Z,97792.91
2023-03-12T13:33:05.376Z,97797.63
2023-03-12T13:35:37.089Z,97797.59
2023-03-12T13:38:07.216Z,97807.13
2023-03-12T13:40:37.766Z,97813.68
2023-03-12T13:43:06.765Z,97811.20
2023-03-12T13:45:41.884Z,97820.75
2023-03-12T13:48:17.954Z,97825.81
2023-03-12T13:50:52.311Z,97824.28
2023-03-12T13:53:41.234Z,97843.02
2023-03-12T13:56:10.416Z,97853.08
2023-03-12T13:58:45.961Z,97858.00
2023-03-12T14:01:16.017Z,97859.29
2023-03-12T14:03:49.917Z,97873.02
2023-03-12T14:06:20.209Z,97871.50
2023-03-12T14:09:06.008Z,97876.83
2023-03-12T14:11:43.592Z,97883.14
2023-03-12T14:14:24.780Z,97894.69
2023-03-12T14:16:57.765Z,97898.50
2023-03-12T14:19:27.396Z,97901.13
2023-03-12T14:21:57.485Z,97901.04
2023-03-12T14:24:28.429Z,97900.29
2023-03-12T14:27:01.816Z,97904.11
2023-03-12T14:29:33.882Z,97906.52
2023-03-12T14:32:04.408Z,97909.34
2023-03-12T14:34:39.658Z,97915.09
2023-03-12T14:37:25.077Z,97920.28
2023-03-12T14:40:14.808Z,97918.07
2023-03-12T14:42:44.104Z,97927.63
2023-03-12T14:45:18.628Z,97937.41
2023-03-12T14:47:53.557Z,97937.48
2023-03-12T14:50:22.467Z,97943.78
2023-03-12T14:52:53.898Z,97957.77
2023-03-12T14:55:23.812Z,97964.04
2023-03-12T14:58:06.835Z,97972.20
2023-03-12T15:00:35.527Z,97982.33
2023-03-12T15:03:11.168Z,97987.92
2023-03-12T15:05:48.250Z,97994.66
2023-03-12T15:08:17.038Z,98002.21
2023-03-12T15:10:53.785Z,98008.57
2023-03-12T15:13:23.123Z,98012.15
2023-03-12T15:15:52.976Z,98025.38
2023-03-12T15:18:29.700Z,98025.96
2023-03-12T15:20:59.517Z,98034.22
2023-03-12T15:23:36.801Z,98035.33
2023-03-12T15:26:09.785Z,98041.68
2023-03-12T15:28:38.786Z,98045.92
2023-03-12T15:31:10.778Z,98055.79
2023-03-12T15:33:40.662Z,98055.34
2023-03-12T15:36:19.628Z,98060.91
2023-03-12T15:38:56.522Z,98066.25
2023-03-12T15:41:27.192Z,98075.43
2023-03-12T15:43:56.249Z,98077.56
2023-03-12T15:46:25.759Z,98086.30
2023-03-12T15:48:56.219Z,98089.34
2023-03-12T15:51:29.598Z,98098.27
2023-03-12T15:54:07.254Z,98104.95
2023-03-12T15:56:36.918Z,98116.95
2023-03-12T15:59:16.354Z,98127.67
2023-03-12T16:01:49.548Z,98136.15
2023-03-12T16:04:18.650Z,98148.62
2023-03-12T16:06:49.430Z,98157.52
2023-03-12T16:09:20.536Z,98163.19
2023-03-12T16:11:49.305Z,98175.01
2023-03-12T16:14:25.053Z,98183.28
2023-03-12T16:16:58.964Z,98197.19
2023-03-12T16:19:29.131Z,98204.09
2023-03-12T16:21:58.803Z,98220.89
2023-03-12T16:24:29.321Z,98226.13
2023-03-12T16:26:58.520Z,98231.52
2023-03-12T16:29:34.800Z,98239.91
2023-03-12T16:32:09.713Z,98246.13
2023-03-12T16:34:38.705Z,98251.73
2023-03-12T16:37:10.881Z,98253.56
2023-03-12T16:39:39.494Z,98259.17
2023-03-12T16:42:13.359Z,98267.14
2023-03-12T16:44:43.093Z,98267.42
2023-03-12T16:47:13.916Z,98277.74
2023-03-12T16:49:44.025Z,98284.98
2023-03-12T16:52:17.621Z,98285.64
2023-03-12T16:54:48.561Z,98287.50
2023-03-12T16:57:23.760Z,98292.05
2023-03-12T16:59:52.905Z,98292.01
2023-03-12T17:02:22.094Z,98296.16
2023-03-12T17:04:53.553Z,98302.02
2023-03-12T17:07:22.537Z,98304.51
2023-03-12T17:09:51.633Z,98309.01
2023-03-12T17:12:31.076Z,98315.50
2023-03-12T17:14:59.962Z,98323.29
2023-03-12T17:17:30.079Z,98332.92
2023-03-12T17:20:00.615Z,98341.64
2023-03-12T17:22:29.700Z,98342.58
2023-03-12T17:24:59.511Z,98350.91
2023-03-12T17:27:28.021Z,98353.04
2023-03-12T17:29:56.781Z,98355.45
2023-03-12T17:32:25.677Z,98356.91
2023-03-12T17:34:55.994Z,98357.24
2023-03-12T17:37:24.577Z,98354.73
2023-03-12T17:39:53.775Z,98360.23
2023-03-12T17:42:23.176Z,98362.70
2023-03-12T17:44:52.275Z,98370.16
2023-03-12T17:47:20.851Z,98374.17
2023-03-12T17:49:51.051Z,98380.84
2023-03-12T17:52:20.080Z,98385.37
2023-03-12T17:54:48.867Z,98391.44
2023-03-12T17:57:18.361Z,98400.63
2023-03-12T17:59:47.219Z,98408.45
2023-03-12T18:02:16.349Z,98415.45
2023-03-12T18:04:45.324Z,98419.14
2023-03-12T18:07:14.349Z,98422.58
2023-03-12T18:09:43.236Z,98423.30
2023-03-12T18:12:15.513Z,98419.98
2023-03-12T18:14:46.637Z,98422.02
2023-03-12T18:17:16.034Z,98422.13
2023-03-12T18:19:51.173Z,98416.44
2023-03-12T18:22:20.270Z,98419.85
2023-03-12T18:24:50.199Z,98420.54
2023-03-12T18:27:19.387Z,98425.30
2023-03-12T18:29:48.925Z,98418.02
2023-03-12T18:32:18.024Z,98412.33
2023-03-12T18:34:48.003Z,98409.90
2023-03-12T18:37:17.201Z,98405.52
2023-03-12T18:39:47.728Z,98402.99
2023-03-12T18:42:16.734Z,98398.09
2023-03-12T18:44:45.916Z,98399.29
2023-03-12T18:47:15.020Z,98397.23
2023-03-12T18:49:44.214Z,98396.20
2023-03-12T18:52:13.539Z,98391.00
2023-03-12T18:54:42.707Z,98387.36
2023-03-12T18:57:12.825Z,98384.71
2023-03-12T18:59:45.709Z,98381.17
2023-03-12T19:02:16.652Z,98365.20
2023-03-12T19:04:46.069Z,98368.08
2023-03-12T19:07:14.941Z,98366.23
2023-03-12T19:09:44.245Z,98358.33
2023-03-12T19:12:13.233Z,98353.78
2023-03-12T19:14:42.227Z,98354.39
2023-03-12T19:17:12.651Z,98353.85
2023-03-12T19:19:43.087Z,98352.77
2023-03-12T19:22:12.994Z,98349.89
2023-03-12T19:24:43.267Z,98344.81
2023-03-12T19:27:14.356Z,98339.58
2023-03-12T19:29:45.096Z,98331.42
2023-03-12T19:32:13.880Z,98326.94
2023-03-12T19:34:51.147Z,98328.13
2023-03-12T19:37:22.623Z,98322.44
2023-03-12T19:39:51.615Z,98313.27
2023-03-12T19:42:20.601Z,98319.80
2023-03-12T19:44:49.793Z,98316.77
2023-03-12T19:47:19.298Z,98318.73
2023-03-12T19:49:48.394Z,98320.79
2023-03-12T19:52:22.217Z,98319.27
2023-03-12T19:55:03.348Z,98326.18
2023-03-12T19:57:34.270Z,98328.27
2023-03-12T20:00:07.948Z,98338.58
2023-03-12T20:02:37.198Z,98334.16
2023-03-12T20:05:07.850Z,98331.73
2023-03-12T20:07:37.213Z,98335.88
2023-03-12T20:10:10.440Z,98330.71
2023-03-12T20:12:40.052Z,98332.67
2023-03-12T20:15:09.669Z,98338.69
2023-03-12T20:17:39.296Z,98342.91
2023-03-12T20:20:09.205Z,98344.94
2023-03-12T20:22:38.287Z,98346.44
2023-03-12T20:25:08.390Z,98346.47
2023-03-12T20:27:38.916Z,98350.27
2023-03-12T20:30:08.531Z,98350.83
2023-03-12T20:32:40.941Z,98352.33
2023-03-12T20:35:10.435Z,98347.68
2023-03-12T20:37:41.261Z,98350.64
2023-03-12T20:40:10.840Z,98355.38
2023-03-12T20:42:44.236Z,98353.99
2023-03-12T20:45:13.432Z,98352.77
2023-03-12T20:47:42.530Z,98349.65
2023-03-12T20:50:11.835Z,98349.09
2023-03-12T20:52:40.726Z,98343.13
2023-03-12T20:55:10.039Z,98343.94
2023-03-12T20:57:40.051Z,98343.28
2023-03-12T21:00:09.170Z,98343.21
2023-03-12T21:02:40.134Z,98342.39
2023-03-12T21:05:11.513Z,98343.11
2023-03-12T21:07:40.373Z,98349.36
2023-03-12T21:10:10.124Z,98353.41
2023-03-12T21:12:47.742Z,98367.37
2023-03-12T21:15:16.511Z,98368.78
2023-03-12T21:17:45.706Z,98372.21
2023-03-12T21:20:17.669Z,98378.36
2023-03-12T21:22:47.908Z,98386.70
2023-03-12T21:25:16.684Z,98398.05
2023-03-12T21:27:51.194Z,98406.27
2023-03-12T21:30:21.523Z,98407.81
2023-03-12T21:32:54.950Z,98412.77
2023-03-12T21:35:24.071Z,98416.11
2023-03-12T21:37:52.703Z,98424.30
2023-03-12T21:40:22.212Z,98429.22
2023-03-12T21:42:51.301Z,98437.58
2023-03-12T21:45:24.098Z,98444.36
2023-03-12T21:47:54.229Z,98451.09
2023-03-12T21:50:29.641Z,98452.14
2023-03-12T21:52:58.636Z,98454.36
2023-03-12T21:55:27.534Z,98461.59
2023-03-12T21:57:56.747Z,98467.63
2023-03-12T22:00:25.717Z,98463.02
2023-03-12T22:02:56.037Z,98465.04
2023-03-12T22:05:24.736Z,98468.33
2023-03-12T22:07:53.406Z,98465.23
2023-03-12T22:10:22.504Z,98465.89
2023-03-12T22:12:51.319Z,98475.38
2023-03-12T22:15:20.178Z,98478.88
2023-03-12T22:17:49.888Z,98476.77
2023-03-12T22:20:18.679Z,98482.55
2023-03-12T22:22:53.827Z,98485.24
2023-03-12T22:25:22.288Z,98490.02
2023-03-12T22:27:50.984Z,98489.92
2023-03-12T22:30:20.200Z,98497.59
2023-03-12T22:32:49.058Z,98501.37
2023-03-12T22:35:18.060Z,98503.56
2023-03-12T22:37:46.843Z,98503.94
2023-03-12T22:40:15.839Z,98508.73
2023-03-12T22:42:51.386Z,98513.05
2023-03-12T22:45:20.169Z,98511.73
2023-03-12T22:47:48.965Z,98513.09
2023-03-12T22:50:18.572Z,98515.72
2023-03-12T22:52:51.866Z,98518.36
2023-03-12T22:55:20.859Z,98519.98
2023-03-12T22:57:49.963Z,98520.52
2023-03-12T23:00:20.019Z,98523.25
2023-03-12T23:02:48.983Z,98527.50
2023-03-12T23:05:18.463Z,98531.34
2023-03-12T23:07:47.767Z,98539.38
2023-03-12T23:10:17.578Z,98541.30
2023-03-12T23:12:46.155Z,98547.62
2023-03-12T23:15:15.354Z,98553.39
2023-03-12T23:17:44.083Z,98558.04
2023-03-12T23:20:13.860Z,98566.84
2023-03-12T23:22:42.639Z,98568.55
2023-03-12T23:25:12.045Z,98577.21
2023-03-12T23:27:41.341Z,98578.41
2023-03-12T23:30:10.436Z,98590.15
2023-03-12T23:32:39.639Z,98599.98
2023-03-12T23:35:08.623Z,98611.05
2023-03-12T23:37:37.616Z,98617.77
2023-03-12T23:40:07.133Z,98626.64
2023-03-12T23:42:44.725Z,98628.13
2023-03-12T23:45:13.506Z,98647.13
2023-03-12T23:47:42.293Z,98653.86
2023-03-12T23:50:11.594Z,98664.06
2023-03-12T23:52:40.792Z,98668.42
2023-03-12T23:55:10.296Z,98667.81
2023-03-12T23:57:39.185Z,98667.12
